Time;durP1;ratioP1;P1;durP2;ratioP2;P2;SDS_P1;SDS_P2;PMS_P1;PMS_P2;Temp;Humidity;BMP_temperature;BMP_pressure;BME280_temperature;BME280_humidity;BME280_pressure;Samples;Min_cycle;Max_cycle;Signal;HPM_P1;HPM_P2
2023/08/31 00:00:41;;;;;;;2.78;1.02;;;11.90;99.90;;;;;;5121604;28;20052;-62
2023/08/31 00:03:08;;;;;;;2.78;0.82;;;11.90;99.90;;;;;;5120390;28;20499;-62
2023/08/31 00:05:37;;;;;;;2.53;0.80;;;11.90;99.90;;;;;;5122014;28;20501;-62
2023/08/31 00:08:03;;;;;;;3.85;0.88;;;11.90;99.90;;;;;;5121209;28;20050;-62
2023/08/31 00:10:29;;;;;;;4.65;1.30;;;11.90;99.90;;;;;;5120926;28;20047;-63
2023/08/31 00:12:55;;;;;;;3.85;0.80;;;11.90;99.90;;;;;;5121854;28;20049;-62
2023/08/31 00:15:21;;;;;;;2.67;0.77;;;12.00;99.90;;;;;;5120237;28;20115;-62
2023/08/31 00:17:47;;;;;;;3.28;0.90;;;12.10;99.90;;;;;;5120531;28;20088;-62
2023/08/31 00:20:13;;;;;;;2.25;0.90;;;12.10;99.90;;;;;;5119055;28;20074;-61
2023/08/31 00:22:38;;;;;;;2.97;0.80;;;12.10;99.90;;;;;;5120335;28;20248;-62
2023/08/31 00:25:08;;;;;;;4.30;1.00;;;12.10;99.90;;;;;;5119436;28;20047;-61
2023/08/31 00:27:36;;;;;;;3.10;0.95;;;12.20;99.90;;;;;;5117628;28;20066;-62
2023/08/31 00:30:07;;;;;;;2.78;1.10;;;12.20;99.90;;;;;;5120290;28;20043;-61
2023/08/31 00:32:34;;;;;;;3.08;1.05;;;12.30;99.90;;;;;;5119024;28;20065;-62
2023/08/31 00:34:59;;;;;;;2.38;0.90;;;12.20;99.90;;;;;;5120079;28;20595;-61
2023/08/31 00:37:25;;;;;;;3.20;1.00;;;12.30;99.90;;;;;;5118674;28;20044;-61
2023/08/31 00:39:52;;;;;;;5.30;1.27;;;12.30;99.90;;;;;;5120410;28;20414;-62
2023/08/31 00:42:18;;;;;;;2.65;0.88;;;12.30;99.90;;;;;;5119446;28;20040;-63
2023/08/31 00:44:46;;;;;;;5.00;1.10;;;12.30;99.90;;;;;;5118839;28;20040;-63
2023/08/31 00:47:13;;;;;;;3.85;1.10;;;12.30;99.90;;;;;;5118198;28;20048;-62
2023/08/31 00:49:40;;;;;;;6.78;1.45;;;12.30;99.90;;;;;;5118518;28;20051;-62
2023/08/31 00:52:06;;;;;;;4.85;1.42;;;12.20;99.90;;;;;;5119817;28;20546;-63
2023/08/31 00:54:33;;;;;;;6.00;2.00;;;12.20;99.90;;;;;;5117427;28;20112;-62
2023/08/31 00:56:58;;;;;;;3.55;1.45;;;12.20;99.90;;;;;;5099325;28;20123;-64
2023/08/31 00:59:24;;;;;;;4.03;1.60;;;12.20;99.90;;;;;;5098768;28;20048;-61
2023/08/31 01:02:05;;;;;;;3.90;1.40;;;12.10;99.90;;;;;;5098302;28;20174;-62
2023/08/31 01:04:58;;;;;;;5.57;1.70;;;12.10;99.90;;;;;;5098977;28;20043;-62
2023/08/31 01:07:34;;;;;;;6.05;1.63;;;12.00;99.90;;;;;;5097715;28;20096;-62
2023/08/31 01:10:14;;;;;;;4.38;1.67;;;12.00;99.90;;;;;;5098921;28;20150;-62
2023/08/31 01:12:47;;;;;;;4.53;1.63;;;12.00;99.90;;;;;;5097324;28;20051;-62
2023/08/31 01:15:14;;;;;;;5.15;1.55;;;12.00;99.90;;;;;;5097833;28;20055;-61
2023/08/31 01:17:47;;;;;;;4.95;2.00;;;12.00;99.90;;;;;;5060565;28;1086726;-61
2023/08/31 01:20:20;;;;;;;4.97;1.80;;;11.90;99.90;;;;;;5098416;28;20060;-61
2023/08/31 01:22:55;;;;;;;5.13;1.80;;;11.80;99.90;;;;;;5099629;28;20121;-61
2023/08/31 01:25:21;;;;;;;7.90;2.00;;;11.70;99.90;;;;;;5099634;28;20130;-61
2023/08/31 01:27:47;;;;;;;5.47;2.00;;;11.70;99.90;;;;;;5097594;28;20086;-62
2023/08/31 01:30:13;;;;;;;4.60;1.90;;;11.60;99.90;;;;;;5098930;28;20048;-61
2023/08/31 01:32:45;;;;;;;4.20;1.73;;;11.60;99.90;;;;;;5096665;28;20044;-61
2023/08/31 01:35:13;;;;;;;5.25;1.55;;;11.60;99.90;;;;;;5098483;28;20040;-61
2023/08/31 01:37:51;;;;;;;6.10;2.03;;;11.60;99.90;;;;;;5098664;28;20051;-61
2023/08/31 01:40:32;;;;;;;4.32;1.70;;;11.60;99.90;;;;;;5098774;28;20090;-62
2023/08/31 01:43:00;;;;;;;5.03;1.73;;;11.70;99.90;;;;;;5099287;28;20048;-61
2023/08/31 01:45:26;;;;;;;3.58;1.58;;;11.60;99.90;;;;;;5098190;28;20044;-62
2023/08/31 01:47:52;;;;;;;9.45;2.03;;;11.70;99.90;;;;;;5099366;28;20048;-61
2023/08/31 01:50:18;;;;;;;5.80;1.70;;;11.60;99.90;;;;;;5098031;28;20079;-62
2023/08/31 01:52:44;;;;;;;4.57;1.60;;;11.60;99.90;;;;;;5099540;28;20048;-61
2023/08/31 01:55:09;;;;;;;5.25;1.73;;;11.70;99.90;;;;;;5097291;28;20044;-61
2023/08/31 01:57:35;;;;;;;4.18;1.40;;;11.70;99.90;;;;;;5097967;28;20055;-60
2023/08/31 02:00:01;;;;;;;5.57;1.75;;;11.60;99.90;;;;;;5097780;28;20052;-62
2023/08/31 02:02:27;;;;;;;4.07;1.55;;;11.60;99.90;;;;;;5097827;28;20036;-61
2023/08/31 02:04:52;;;;;;;4.20;1.42;;;11.60;99.90;;;;;;5099153;28;20060;-61
2023/08/31 02:07:19;;;;;;;5.30;1.60;;;11.60;99.90;;;;;;5097445;28;20056;-62
2023/08/31 02:09:44;;;;;;;3.65;1.40;;;11.60;99.90;;;;;;5099417;28;20095;-61
2023/08/31 02:12:10;;;;;;;7.25;1.42;;;11.50;99.90;;;;;;5097775;28;20521;-61
2023/08/31 02:14:36;;;;;;;4.85;1.73;;;11.50;99.90;;;;;;5096883;28;20099;-62
2023/08/31 02:17:02;;;;;;;5.78;1.42;;;11.60;99.90;;;;;;5098540;28;20131;-61
2023/08/31 02:19:28;;;;;;;5.65;1.90;;;11.60;99.90;;;;;;5097416;28;20040;-61
2023/08/31 02:21:53;;;;;;;4.85;1.70;;;11.60;99.90;;;;;;5098644;28;20040;-62
2023/08/31 02:24:20;;;;;;;5.30;1.30;;;11.60;99.90;;;;;;5097423;28;20044;-61
2023/08/31 02:26:46;;;;;;;3.63;1.27;;;11.50;99.90;;;;;;5098735;28;20119;-60
2023/08/31 02:29:11;;;;;;;4.88;1.38;;;11.60;99.90;;;;;;5097727;28;20060;-60
2023/08/31 02:31:41;;;;;;;3.92;1.40;;;11.50;99.90;;;;;;5098232;28;20044;-61
2023/08/31 02:34:07;;;;;;;5.68;1.30;;;11.60;99.90;;;;;;5098229;28;20077;-61
2023/08/31 02:36:32;;;;;;;4.72;1.63;;;11.50;99.90;;;;;;5097463;28;20040;-61
2023/08/31 02:38:58;;;;;;;4.63;1.52;;;11.60;99.90;;;;;;5097809;28;20067;-61
2023/08/31 02:41:24;;;;;;;5.60;1.40;;;11.60;99.90;;;;;;5097457;28;20055;-61
2023/08/31 02:43:52;;;;;;;5.45;1.30;;;11.60;99.90;;;;;;5098344;28;20653;-61
2023/08/31 02:46:19;;;;;;;6.25;1.40;;;11.60;99.90;;;;;;5097757;28;20090;-61
2023/08/31 02:48:44;;;;;;;5.07;1.30;;;11.60;99.90;;;;;;5096104;28;20048;-61
2023/08/31 02:51:10;;;;;;;5.63;1.40;;;11.60;99.90;;;;;;5098437;28;20117;-61
2023/08/31 02:53:36;;;;;;;7.10;1.50;;;11.60;99.90;;;;;;5097037;28;20063;-61
2023/08/31 02:56:02;;;;;;;4.63;1.60;;;11.60;99.90;;;;;;5111586;28;20126;-61
2023/08/31 02:58:28;;;;;;;4.30;1.58;;;11.60;99.90;;;;;;5117293;28;20035;-60
2023/08/31 03:00:55;;;;;;;4.60;1.85;;;11.60;99.90;;;;;;5117861;28;20052;-61
2023/08/31 03:03:21;;;;;;;5.97;1.60;;;11.70;99.90;;;;;;5118027;28;20044;-60
2023/08/31 03:05:47;;;;;;;3.90;1.27;;;11.70;99.90;;;;;;5118329;28;20059;-60
2023/08/31 03:08:13;;;;;;;3.65;1.30;;;11.60;99.90;;;;;;5118305;28;20040;-61
2023/08/31 03:10:39;;;;;;;5.68;1.58;;;11.60;99.90;;;;;;5117350;28;20121;-61
2023/08/31 03:13:05;;;;;;;4.15;1.38;;;11.60;99.90;;;;;;5118574;28;20043;-61
2023/08/31 03:15:34;;;;;;;3.83;1.25;;;11.60;99.90;;;;;;5117674;28;20067;-60
2023/08/31 03:18:00;;;;;;;4.75;1.33;;;11.50;99.90;;;;;;5118352;28;20079;-60
2023/08/31 03:20:26;;;;;;;2.92;1.23;;;11.50;99.90;;;;;;5101439;28;20052;-60
2023/08/31 03:22:51;;;;;;;5.85;1.60;;;11.50;99.90;;;;;;5097807;28;20067;-61
2023/08/31 03:25:17;;;;;;;6.90;1.40;;;11.50;99.90;;;;;;5097462;28;20047;-61
2023/08/31 03:27:43;;;;;;;5.30;1.50;;;11.50;99.90;;;;;;5096743;28;20040;-60
2023/08/31 03:30:09;;;;;;;3.58;1.30;;;11.50;99.90;;;;;;5097989;28;20040;-61
2023/08/31 03:32:34;;;;;;;4.50;1.35;;;11.50;99.90;;;;;;5096945;28;20054;-61
2023/08/31 03:35:03;;;;;;;5.38;1.30;;;11.40;99.90;;;;;;5097991;28;20108;-61
2023/08/31 03:37:29;;;;;;;5.13;2.22;;;11.40;99.90;;;;;;5096844;28;20044;-61
2023/08/31 03:39:55;;;;;;;5.28;1.30;;;11.30;99.90;;;;;;5097986;28;20048;-61
2023/08/31 03:42:21;;;;;;;6.32;1.35;;;11.40;99.90;;;;;;5097721;28;20076;-60
2023/08/31 03:44:47;;;;;;;3.85;1.20;;;11.30;99.90;;;;;;5096793;28;20075;-60
2023/08/31 03:47:12;;;;;;;3.33;1.17;;;11.30;99.90;;;;;;5097714;28;20044;-61
2023/08/31 03:49:38;;;;;;;5.38;1.20;;;11.40;99.90;;;;;;5096522;28;20044;-60
2023/08/31 03:52:04;;;;;;;4.28;1.20;;;11.10;99.90;;;;;;5099948;28;20044;-60
2023/08/31 03:54:30;;;;;;;3.08;1.27;;;11.30;99.90;;;;;;5099298;28;20057;-61
2023/08/31 03:56:55;;;;;;;6.38;1.20;;;11.30;99.90;;;;;;5122255;28;20048;-61
2023/08/31 03:59:21;;;;;;;5.45;1.10;;;11.30;99.90;;;;;;5121374;28;20047;-62
2023/08/31 04:01:47;;;;;;;5.45;1.58;;;11.20;99.90;;;;;;5121413;28;20844;-62
2023/08/31 04:04:12;;;;;;;4.70;1.40;;;11.30;99.90;;;;;;5121735;28;20048;-62
2023/08/31 04:06:38;;;;;;;5.15;1.23;;;11.30;99.90;;;;;;5120560;28;20378;-62
2023/08/31 04:09:04;;;;;;;3.63;1.27;;;11.20;99.90;;;;;;5121785;28;20086;-62
2023/08/31 04:11:30;;;;;;;3.90;1.30;;;11.20;99.90;;;;;;5120637;28;20059;-62
2023/08/31 04:13:55;;;;;;;4.38;1.77;;;11.10;99.90;;;;;;5121947;27;20047;-60
2023/08/31 04:16:21;;;;;;;3.85;1.10;;;11.20;99.90;;;;;;5120832;28;20420;-60
2023/08/31 04:18:51;;;;;;;4.65;1.45;;;11.20;99.90;;;;;;5120479;28;20056;-61
2023/08/31 04:21:18;;;;;;;5.45;1.20;;;11.10;99.90;;;;;;5121457;28;20575;-61
2023/08/31 04:23:44;;;;;;;3.47;1.02;;;11.10;99.90;;;;;;5120510;28;20577;-61
2023/08/31 04:26:13;;;;;;;4.20;1.45;;;11.10;99.90;;;;;;5121219;28;20148;-60
2023/08/31 04:28:42;;;;;;;5.85;1.65;;;11.10;99.90;;;;;;5120251;28;20070;-61
2023/08/31 04:31:08;;;;;;;6.25;1.63;;;11.10;99.90;;;;;;5121337;28;20050;-60
2023/08/31 04:33:38;;;;;;;4.07;1.15;;;11.20;99.90;;;;;;5120598;28;20075;-61
2023/08/31 04:36:04;;;;;;;3.50;1.05;;;11.10;99.90;;;;;;5118956;28;20039;-61
2023/08/31 04:38:34;;;;;;;4.63;1.20;;;11.00;99.90;;;;;;5120937;28;20465;-60
2023/08/31 04:41:01;;;;;;;6.50;1.42;;;11.10;99.90;;;;;;5119648;28;20418;-61
2023/08/31 04:43:27;;;;;;;7.13;1.38;;;11.10;99.90;;;;;;5119655;28;20483;-60
2023/08/31 04:45:53;;;;;;;6.03;1.65;;;11.10;99.90;;;;;;5119340;28;20040;-61
2023/08/31 04:48:19;;;;;;;4.13;1.30;;;10.90;99.90;;;;;;5120614;27;20071;-61
2023/08/31 04:50:45;;;;;;;3.95;1.25;;;11.00;99.90;;;;;;5120043;28;20065;-61
2023/08/31 04:53:11;;;;;;;7.18;1.30;;;10.90;99.90;;;;;;5119986;28;20047;-61
2023/08/31 04:55:37;;;;;;;4.55;1.30;;;11.00;99.90;;;;;;5108977;28;20039;-61
2023/08/31 04:58:03;;;;;;;5.90;1.35;;;11.00;99.90;;;;;;5098992;28;20048;-61
2023/08/31 05:00:29;;;;;;;6.75;1.50;;;11.00;99.90;;;;;;5100073;28;20156;-61
2023/08/31 05:02:56;;;;;;;4.68;1.10;;;11.00;99.90;;;;;;5097158;28;20672;-60
2023/08/31 05:05:22;;;;;;;4.82;1.60;;;10.90;99.90;;;;;;5098840;28;20055;-61
2023/08/31 05:07:47;;;;;;;3.78;1.40;;;10.90;99.90;;;;;;5099137;28;20123;-60
2023/08/31 05:10:13;;;;;;;5.93;1.60;;;11.00;99.90;;;;;;5099479;28;20051;-61
2023/08/31 05:12:39;;;;;;;4.30;1.33;;;10.90;99.90;;;;;;5100027;28;20102;-61
2023/08/31 05:15:06;;;;;;;4.30;1.70;;;11.00;99.90;;;;;;5098597;28;20036;-61
2023/08/31 05:17:32;;;;;;;8.40;1.60;;;11.10;99.90;;;;;;5099358;28;20565;-60
2023/08/31 05:19:57;;;;;;;5.07;1.80;;;11.10;99.90;;;;;;5098455;28;20447;-60
2023/08/31 05:22:23;;;;;;;7.68;3.03;;;11.20;99.90;;;;;;5099673;28;20036;-60
2023/08/31 05:24:49;;;;;;;5.53;1.60;;;11.20;99.90;;;;;;5098862;28;20050;-60
2023/08/31 05:27:15;;;;;;;6.30;1.50;;;11.20;99.90;;;;;;5099174;28;20040;-60
2023/08/31 05:29:40;;;;;;;2.25;1.10;;;11.20;99.90;;;;;;5098171;28;20101;-61
2023/08/31 05:32:06;;;;;;;7.80;1.65;;;11.20;99.90;;;;;;5097968;28;20394;-62
2023/08/31 05:34:34;;;;;;;4.65;1.23;;;11.30;99.90;;;;;;5099102;28;20119;-62
2023/08/31 05:37:00;;;;;;;5.20;1.25;;;11.40;99.90;;;;;;5098072;28;20044;-62
2023/08/31 05:39:26;;;;;;;9.48;1.55;;;11.50;99.90;;;;;;5099414;28;20101;-62
2023/08/31 05:41:51;;;;;;;6.50;1.35;;;11.60;99.90;;;;;;5094526;28;20093;-62
2023/08/31 05:44:17;;;;;;;5.82;1.50;;;11.60;99.90;;;;;;5095266;28;20173;-63
2023/08/31 05:46:43;;;;;;;6.65;1.40;;;11.60;99.90;;;;;;5094926;28;20067;-62
2023/08/31 05:49:08;;;;;;;4.13;1.60;;;11.70;99.90;;;;;;5092531;28;20040;-62
2023/08/31 05:51:35;;;;;;;6.55;1.67;;;11.80;99.90;;;;;;5094994;28;20508;-62
2023/08/31 05:54:00;;;;;;;4.80;1.75;;;11.90;99.90;;;;;;5092114;28;20576;-62
2023/08/31 05:56:26;;;;;;;6.20;1.35;;;12.00;99.90;;;;;;5112126;28;20039;-62
2023/08/31 05:58:54;;;;;;;5.40;1.20;;;12.00;99.90;;;;;;5114269;28;20051;-62
2023/08/31 06:01:22;;;;;;;4.78;1.42;;;12.10;99.90;;;;;;5104057;28;20392;-62
2023/08/31 06:03:48;;;;;;;4.97;1.65;;;12.10;99.90;;;;;;5104585;28;20036;-58
2023/08/31 06:06:14;;;;;;;6.85;1.85;;;12.20;99.90;;;;;;5105187;28;20193;-62
2023/08/31 06:08:42;;;;;;;4.50;1.30;;;12.10;99.90;;;;;;5100726;28;20079;-62
2023/08/31 06:11:08;;;;;;;5.45;1.52;;;12.20;99.90;;;;;;5093220;28;20044;-62
2023/08/31 06:13:33;;;;;;;5.53;1.60;;;12.10;99.90;;;;;;5094808;28;20051;-62
2023/08/31 06:15:59;;;;;;;3.72;1.38;;;12.10;99.90;;;;;;5093974;28;20540;-62
2023/08/31 06:18:26;;;;;;;6.50;1.80;;;12.20;99.90;;;;;;5094145;28;20064;-62
2023/08/31 06:20:51;;;;;;;5.15;1.45;;;12.30;99.90;;;;;;5094684;28;20403;-62
2023/08/31 06:23:17;;;;;;;7.30;1.45;;;12.50;99.90;;;;;;5092361;28;20055;-61
2023/08/31 06:25:45;;;;;;;3.17;1.48;;;12.50;99.90;;;;;;5095003;28;20067;-62
2023/08/31 06:28:12;;;;;;;6.32;1.50;;;12.60;99.90;;;;;;5093425;28;20043;-62
2023/08/31 06:30:38;;;;;;;5.65;1.33;;;12.60;99.90;;;;;;5094211;28;20048;-61
2023/08/31 06:33:04;;;;;;;8.13;1.65;;;12.70;99.90;;;;;;5092141;28;20052;-62
2023/08/31 06:35:30;;;;;;;6.78;1.85;;;12.80;99.90;;;;;;5094673;28;20040;-62
2023/08/31 06:37:56;;;;;;;9.18;2.10;;;12.90;99.90;;;;;;5094345;28;20082;-62
2023/08/31 06:40:22;;;;;;;8.38;1.30;;;13.00;99.90;;;;;;5093564;28;20044;-62
2023/08/31 06:42:47;;;;;;;6.93;1.85;;;13.10;99.90;;;;;;5093957;28;20047;-62
2023/08/31 06:45:13;;;;;;;4.88;1.65;;;13.20;99.90;;;;;;5093847;28;20052;-62
2023/08/31 06:47:39;;;;;;;7.18;1.65;;;13.30;99.90;;;;;;5095418;28;20157;-61
2023/08/31 06:50:05;;;;;;;3.25;1.00;;;13.40;99.90;;;;;;5093975;28;20059;-62
2023/08/31 06:52:31;;;;;;;4.60;1.55;;;13.50;99.90;;;;;;5095539;28;20048;-62
2023/08/31 06:54:57;;;;;;;4.07;1.20;;;13.60;99.90;;;;;;5099172;28;20130;-61
2023/08/31 06:57:24;;;;;;;5.30;1.38;;;13.60;99.90;;;;;;5114153;28;20992;-62
2023/08/31 06:59:49;;;;;;;5.45;1.33;;;13.70;99.90;;;;;;5114835;28;20043;-62
2023/08/31 07:02:15;;;;;;;6.72;1.35;;;13.80;99.90;;;;;;5114621;28;20039;-63
2023/08/31 07:04:41;;;;;;;5.32;1.30;;;13.90;99.90;;;;;;5115540;28;20097;-62
2023/08/31 07:07:08;;;;;;;6.18;1.77;;;14.00;99.90;;;;;;5111947;28;20055;-62
2023/08/31 07:09:34;;;;;;;6.07;1.85;;;14.00;99.90;;;;;;5116090;28;20043;-62
2023/08/31 07:12:02;;;;;;;5.32;1.20;;;14.20;99.90;;;;;;5114877;28;20047;-61
2023/08/31 07:14:27;;;;;;;5.70;1.42;;;14.20;99.90;;;;;;5115138;28;20047;-62
2023/08/31 07:16:53;;;;;;;6.18;1.27;;;14.20;99.90;;;;;;5116686;28;20090;-62
2023/08/31 07:19:19;;;;;;;8.80;2.10;;;14.30;99.90;;;;;;5117960;28;20101;-62
2023/08/31 07:21:46;;;;;;;7.00;1.20;;;14.40;99.90;;;;;;5119143;28;20052;-62
2023/08/31 07:24:12;;;;;;;4.60;1.15;;;14.50;99.90;;;;;;5117886;28;20042;-61
2023/08/31 07:26:38;;;;;;;5.13;1.50;;;14.60;99.90;;;;;;5120864;28;20095;-61
2023/08/31 07:29:04;;;;;;;5.63;1.40;;;14.60;99.90;;;;;;5122553;28;20051;-61
2023/08/31 07:31:31;;;;;;;6.30;1.30;;;14.70;99.90;;;;;;5122797;28;20035;-62
2023/08/31 07:33:57;;;;;;;7.38;1.42;;;14.80;99.90;;;;;;5123153;28;20058;-62
2023/08/31 07:36:22;;;;;;;4.45;1.10;;;14.90;99.90;;;;;;5121853;28;20040;-62
2023/08/31 07:38:48;;;;;;;4.13;1.25;;;15.00;99.90;;;;;;5122925;28;20111;-61
2023/08/31 07:41:14;;;;;;;5.75;1.10;;;15.10;99.90;;;;;;5121380;28;20051;-62
2023/08/31 07:43:39;;;;;;;4.63;1.50;;;15.10;99.90;;;;;;5121778;28;20048;-61
2023/08/31 07:46:05;;;;;;;6.22;1.17;;;15.20;99.90;;;;;;5121275;28;20035;-61
2023/08/31 07:48:31;;;;;;;3.58;0.90;;;15.30;96.20;;;;;;5121030;28;20111;-61
2023/08/31 07:50:56;;;;;;;6.72;1.02;;;15.30;95.80;;;;;;5122238;28;20047;-61
2023/08/31 07:53:22;;;;;;;6.57;1.30;;;15.40;97.00;;;;;;5121783;28;20114;-61
2023/08/31 07:55:56;;;;;;;6.72;1.98;;;15.50;98.30;;;;;;5109720;28;20032;-62
2023/08/31 07:58:22;;;;;;;2.28;0.90;;;15.60;96.00;;;;;;5100908;28;20051;-61
2023/08/31 08:00:49;;;;;;;4.65;0.93;;;15.70;94.50;;;;;;5102759;28;20119;-62
2023/08/31 08:03:14;;;;;;;2.22;0.80;;;15.70;91.00;;;;;;5101233;28;20040;-62
2023/08/31 08:05:41;;;;;;;3.13;1.27;;;15.80;80.30;;;;;;5101008;28;20634;-62
2023/08/31 08:08:07;;;;;;;4.72;0.90;;;15.80;82.30;;;;;;5100581;28;20108;-61
2023/08/31 08:10:33;;;;;;;6.93;0.85;;;15.90;81.20;;;;;;5100956;28;20044;-62
2023/08/31 08:12:58;;;;;;;4.85;0.95;;;15.90;74.90;;;;;;5101957;28;20048;-62
2023/08/31 08:15:24;;;;;;;4.22;0.70;;;16.00;77.30;;;;;;5100901;28;20044;-62
2023/08/31 08:17:51;;;;;;;5.03;1.00;;;16.00;73.50;;;;;;5102365;28;20245;-62
2023/08/31 08:20:16;;;;;;;3.58;0.88;;;16.00;67.00;;;;;;5099776;28;20043;-61
2023/08/31 08:22:43;;;;;;;3.22;0.70;;;16.10;71.50;;;;;;5102119;28;20047;-61
2023/08/31 08:25:09;;;;;;;7.28;1.58;;;16.10;66.60;;;;;;5101688;28;20056;-61
2023/08/31 08:27:36;;;;;;;4.75;0.90;;;16.20;64.00;;;;;;5104907;28;20093;-61
2023/08/31 08:30:03;;;;;;;4.90;0.82;;;16.30;60.80;;;;;;5110890;28;20040;-62
2023/08/31 08:32:28;;;;;;;5.95;0.95;;;16.30;60.00;;;;;;5111177;28;20045;-62
2023/08/31 08:34:54;;;;;;;2.25;0.80;;;16.30;53.60;;;;;;5111461;28;20032;-62
2023/08/31 08:37:20;;;;;;;4.32;0.73;;;16.60;63.70;;;;;;5106956;28;20103;-62
2023/08/31 08:39:50;;;;;;;3.17;0.90;;;16.60;50.40;;;;;;5101042;28;20040;-62
2023/08/31 08:42:17;;;;;;;4.38;0.88;;;16.50;52.90;;;;;;5101109;28;20055;-61
2023/08/31 08:44:44;;;;;;;6.03;0.98;;;16.50;53.80;;;;;;5100012;28;20039;-63
2023/08/31 08:47:11;;;;;;;5.25;0.75;;;16.50;59.40;;;;;;5099920;28;20276;-62
2023/08/31 08:49:38;;;;;;;2.95;0.80;;;16.50;58.60;;;;;;5099981;28;20074;-61
2023/08/31 08:52:04;;;;;;;2.05;0.60;;;16.10;22.60;;;;;;5101299;28;20048;-61
2023/08/31 08:54:30;;;;;;;2.40;0.70;;;15.80;30.80;;;;;;5100643;28;20040;-61
2023/08/31 08:56:57;;;;;;;3.58;0.85;;;15.60;36.40;;;;;;5121033;28;20173;-61
2023/08/31 08:59:23;;;;;;;3.75;0.88;;;15.50;45.10;;;;;;5121064;28;20054;-63
2023/08/31 09:01:49;;;;;;;3.53;0.80;;;15.50;43.50;;;;;;5119905;28;20040;-60
2023/08/31 09:04:15;;;;;;;3.60;0.88;;;15.60;53.40;;;;;;5120653;28;20043;-61
2023/08/31 09:06:41;;;;;;;3.65;0.77;;;15.70;53.60;;;;;;5119666;28;20059;-61
2023/08/31 09:09:10;;;;;;;2.78;0.75;;;15.90;58.60;;;;;;5120999;28;20063;-61
2023/08/31 09:11:36;;;;;;;3.05;0.70;;;16.00;44.90;;;;;;5119914;28;20059;-58
2023/08/31 09:14:15;;;;;;;2.25;0.60;;;16.20;52.20;;;;;;5113836;28;20047;-61
2023/08/31 09:16:45;;;;;;;2.70;0.80;;;16.30;41.40;;;;;;5083151;28;20036;-61
2023/08/31 09:19:22;;;;;;;5.68;1.17;;;16.40;34.40;;;;;;5084544;28;20066;-61
2023/08/31 09:21:49;;;;;;;5.32;0.82;;;16.60;34.90;;;;;;5086966;28;20050;-61
2023/08/31 09:24:17;;;;;;;2.40;0.90;;;16.90;45.00;;;;;;5086393;28;20100;-61
2023/08/31 09:26:49;;;;;;;3.90;0.90;;;17.00;35.70;;;;;;5087658;28;20074;-60
2023/08/31 09:29:15;;;;;;;3.05;0.55;;;17.20;40.90;;;;;;5087471;28;20040;-60
2023/08/31 09:31:45;;;;;;;2.00;0.60;;;16.60;15.50;;;;;;5087250;28;20073;-60
2023/08/31 09:34:11;;;;;;;2.22;0.70;;;16.30;5.10;;;;;;5087535;28;20158;-60
2023/08/31 09:36:38;;;;;;;1.98;0.70;;;16.30;9.80;;;;;;5086638;28;20044;-60
2023/08/31 09:39:05;;;;;;;2.10;0.52;;;16.20;18.00;;;;;;5087959;28;20043;-61
2023/08/31 09:41:31;;;;;;;3.00;0.65;;;15.90;21.50;;;;;;5086894;28;20456;-61
2023/08/31 09:44:13;;;;;;;2.00;0.70;;;15.60;27.00;;;;;;5087893;28;20071;-60
2023/08/31 09:46:39;;;;;;;2.08;0.60;;;15.60;37.10;;;;;;5085902;28;20048;-61
2023/08/31 09:49:06;;;;;;;4.07;0.80;;;15.50;44.10;;;;;;5085549;28;20036;-61
2023/08/31 09:51:33;;;;;;;4.05;1.10;;;15.70;53.80;;;;;;5087166;28;20046;-60
2023/08/31 09:54:01;;;;;;;3.05;0.85;;;15.80;61.80;;;;;;5086076;28;20044;-60
2023/08/31 09:56:32;;;;;;;4.97;1.00;;;16.10;72.40;;;;;;5087442;28;20043;-61
2023/08/31 09:58:58;;;;;;;4.18;0.90;;;16.30;69.70;;;;;;5086446;28;20052;-60
2023/08/31 10:01:23;;;;;;;2.78;0.98;;;16.60;66.80;;;;;;5086938;28;20103;-60
2023/08/31 10:03:50;;;;;;;4.00;0.82;;;16.60;52.80;;;;;;5087160;28;20032;-60
2023/08/31 10:06:17;;;;;;;5.68;1.00;;;16.50;48.20;;;;;;5085548;28;20469;-60
2023/08/31 10:08:43;;;;;;;2.50;0.85;;;16.70;48.70;;;;;;5087456;28;20040;-60
2023/08/31 10:11:12;;;;;;;3.60;0.90;;;16.60;26.90;;;;;;5085244;28;20592;-60
2023/08/31 10:13:40;;;;;;;1.95;0.55;;;16.70;29.40;;;;;;5086490;28;20965;-60
2023/08/31 10:16:06;;;;;;;4.30;0.80;;;16.90;28.90;;;;;;5085629;28;20051;-61
2023/08/31 10:18:34;;;;;;;4.30;0.95;;;16.80;29.40;;;;;;5086164;28;20055;-60
2023/08/31 10:21:02;;;;;;;2.40;0.73;;;17.10;37.80;;;;;;5086821;28;20047;-60
2023/08/31 10:23:28;;;;;;;3.58;0.90;;;17.30;37.40;;;;;;5084569;28;20048;-60
2023/08/31 10:25:54;;;;;;;4.22;1.27;;;17.40;37.30;;;;;;5087122;28;20059;-60
2023/08/31 10:28:29;;;;;;;4.03;1.45;;;17.10;47.10;;;;;;5084797;28;20398;-60
2023/08/31 10:31:19;;;;;;;4.22;1.17;;;16.50;58.80;;;;;;5086844;28;20081;-60
2023/08/31 10:34:09;;;;;;;2.95;0.80;;;16.30;51.60;;;;;;5086729;28;20056;-60
2023/08/31 10:36:44;;;;;;;2.33;0.70;;;15.90;39.10;;;;;;5085169;28;20056;-60
2023/08/31 10:39:15;;;;;;;3.45;0.82;;;15.70;37.20;;;;;;5086475;28;20051;-59
2023/08/31 10:41:42;;;;;;;2.30;0.73;;;15.40;39.00;;;;;;5085681;28;20055;-59
2023/08/31 10:44:30;;;;;;;2.85;0.77;;;15.40;51.10;;;;;;5086334;28;20388;-60
2023/08/31 10:47:00;;;;;;;4.32;1.02;;;15.40;57.50;;;;;;5086110;28;20052;-60
2023/08/31 10:49:25;;;;;;;4.68;0.90;;;15.40;62.20;;;;;;5084848;28;20070;-60
2023/08/31 10:51:56;;;;;;;3.00;0.90;;;15.70;70.40;;;;;;5085230;28;20036;-60
2023/08/31 10:54:24;;;;;;;3.97;0.93;;;16.00;57.90;;;;;;5084484;28;20036;-61
2023/08/31 10:56:55;;;;;;;5.20;0.98;;;16.30;56.30;;;;;;5086166;28;20419;-59
2023/08/31 10:59:22;;;;;;;5.15;1.10;;;16.70;55.50;;;;;;5085654;28;20044;-60
2023/08/31 11:01:59;;;;;;;3.70;0.93;;;16.90;54.20;;;;;;5089226;28;20032;-60
2023/08/31 11:04:29;;;;;;;4.57;1.35;;;17.00;40.70;;;;;;5090156;28;20492;-61
2023/08/31 11:07:15;;;;;;;5.68;1.27;;;17.40;39.80;;;;;;5087373;28;20043;-60
2023/08/31 11:09:43;;;;;;;5.82;1.58;;;17.80;38.60;;;;;;5089928;28;20071;-60
2023/08/31 11:12:09;;;;;;;6.28;1.20;;;17.60;30.00;;;;;;5088625;28;20117;-60
2023/08/31 11:14:35;;;;;;;5.38;1.17;;;17.50;27.20;;;;;;5089039;28;20247;-61
2023/08/31 11:17:02;;;;;;;4.88;1.10;;;17.70;42.40;;;;;;5089892;28;20088;-60
2023/08/31 11:19:32;;;;;;;4.65;1.10;;;18.10;37.80;;;;;;5088084;28;20056;-60
2023/08/31 11:22:02;;;;;;;2.78;0.90;;;18.30;27.10;;;;;;5090237;28;20052;-60
2023/08/31 11:24:32;;;;;;;3.78;1.02;;;18.30;15.20;;;;;;5089496;28;20070;-60
2023/08/31 11:26:57;;;;;;;4.07;0.77;;;18.70;15.90;;;;;;5087675;28;20127;-60
2023/08/31 11:29:23;;;;;;;2.88;0.75;;;18.10;8.00;;;;;;5089930;28;20067;-61
2023/08/31 11:31:49;;;;;;;5.45;1.20;;;18.10;1.00;;;;;;5088764;28;20059;-61
2023/08/31 11:34:16;;;;;;;4.50;0.90;;;18.10;15.80;;;;;;5089995;28;20633;-61
2023/08/31 11:36:43;;;;;;;6.05;1.15;;;17.10;19.00;;;;;;5088634;28;20040;-67
2023/08/31 11:39:10;;;;;;;4.10;0.93;;;15.50;79.70;;;;;;5089857;28;20048;-73
2023/08/31 11:41:40;;;;;;;3.92;0.93;;;15.00;86.80;;;;;;5071198;28;20484;-73
2023/08/31 11:44:11;;;;;;;6.25;1.30;;;14.90;92.70;;;;;;5088514;28;20590;-70
2023/08/31 11:46:37;;;;;;;6.20;1.10;;;14.90;99.90;;;;;;5090582;28;20099;-68
2023/08/31 11:49:06;;;;;;;6.38;1.42;;;15.20;99.90;;;;;;5088455;28;20036;-64
2023/08/31 11:51:34;;;;;;;5.75;1.10;;;15.80;99.90;;;;;;5089563;28;20143;-64
2023/08/31 11:54:02;;;;;;;4.95;1.42;;;16.30;99.90;;;;;;5086939;28;20048;-64
2023/08/31 11:56:42;;;;;;;3.50;1.00;;;17.00;99.90;;;;;;5090007;28;20083;-64
2023/08/31 11:59:12;;;;;;;4.53;1.00;;;17.10;65.30;;;;;;5089613;28;20091;-63
2023/08/31 12:01:42;;;;;;;5.70;1.40;;;17.10;65.90;;;;;;5088359;28;20040;-63
2023/08/31 12:04:24;;;;;;;4.10;1.00;;;17.10;54.90;;;;;;5089015;28;20043;-63
2023/08/31 12:06:52;;;;;;;3.60;0.90;;;17.10;71.00;;;;;;5088256;28;20048;-63
2023/08/31 12:09:18;;;;;;;6.28;1.25;;;17.20;81.50;;;;;;5089051;28;20074;-62
2023/08/31 12:11:51;;;;;;;5.13;1.10;;;17.20;72.30;;;;;;5088408;28;20044;-63
2023/08/31 12:14:24;;;;;;;7.43;1.40;;;17.20;71.90;;;;;;5088270;28;20148;-63
2023/08/31 12:16:50;;;;;;;3.97;1.05;;;17.20;64.00;;;;;;5088870;28;20499;-62
2023/08/31 12:19:17;;;;;;;5.80;1.08;;;17.00;61.60;;;;;;5087250;28;20072;-62
2023/08/31 12:21:44;;;;;;;6.07;1.20;;;17.20;59.10;;;;;;5087778;28;20116;-62
2023/08/31 12:24:10;;;;;;;3.05;0.90;;;17.50;68.00;;;;;;5087521;28;20068;-62
2023/08/31 12:26:36;;;;;;;4.70;1.00;;;17.60;25.50;;;;;;5088706;28;20066;-62
2023/08/31 12:29:05;;;;;;;4.93;1.17;;;17.90;36.90;;;;;;5088518;28;20039;-62
2023/08/31 12:31:34;;;;;;;4.90;1.13;;;18.00;21.30;;;;;;5088487;28;20732;-62
2023/08/31 12:34:04;;;;;;;5.65;1.30;;;18.10;23.20;;;;;;5088152;28;20051;-62
2023/08/31 12:36:30;;;;;;;3.38;0.90;;;18.10;20.60;;;;;;5087670;28;20131;-63
2023/08/31 12:38:56;;;;;;;4.78;0.95;;;17.80;19.20;;;;;;5088530;28;20582;-62
2023/08/31 12:41:22;;;;;;;5.13;1.00;;;17.70;16.20;;;;;;5086627;28;20371;-62
2023/08/31 12:43:47;;;;;;;4.97;1.00;;;17.60;7.20;;;;;;5088353;28;20044;-62
2023/08/31 12:46:13;;;;;;;4.57;1.00;;;17.50;9.70;;;;;;5088177;28;20598;-64
2023/08/31 12:48:40;;;;;;;3.03;0.80;;;17.40;13.60;;;;;;5087129;28;20460;-62